createdAt,value
2024-01-20T00:02:23.618Z,101218.69
2024-01-20T00:05:27.311Z,101225.22
2024-01-20T00:08:30.632Z,101223.47
2024-01-20T00:11:33.985Z,101224.97
2024-01-20T00:14:36.879Z,101226.00
2024-01-20T00:17:41.999Z,101233.66
2024-01-20T00:20:47.441Z,101233.63
2024-01-20T00:23:51.543Z,101243.91
2024-01-20T00:26:54.303Z,101241.84
2024-01-20T00:29:57.772Z,101244.97
2024-01-20T00:33:00.907Z,101253.16
2024-01-20T00:36:04.624Z,101263.75
2024-01-20T00:39:07.544Z,101256.94
2024-01-20T00:42:10.840Z,101266.78
2024-01-20T00:45:13.644Z,101259.81
2024-01-20T00:48:16.829Z,101271.88
2024-01-20T00:51:19.801Z,101275.78
2024-01-20T00:54:23.041Z,101289.44
2024-01-20T00:57:25.908Z,101297.87
2024-01-20T01:00:29.082Z,101297.06
2024-01-20T01:03:32.262Z,101312.38
2024-01-20T01:06:35.640Z,101314.91
2024-01-20T01:09:38.681Z,101316.44
2024-01-20T01:12:41.878Z,101315.00
2024-01-20T01:15:44.695Z,101319.19
2024-01-20T01:18:48.153Z,101314.75
2024-01-20T01:21:51.254Z,101313.62
2024-01-20T01:24:54.650Z,101325.97
2024-01-20T01:27:57.747Z,101332.34
2024-01-20T01:31:00.935Z,101339.53
2024-01-20T01:34:03.952Z,101332.09
2024-01-20T01:37:07.256Z,101337.56
2024-01-20T01:40:10.676Z,101340.78
2024-01-20T01:43:13.917Z,101342.88
2024-01-20T01:46:17.010Z,101340.34
2024-01-20T01:49:22.036Z,101342.66
2024-01-20T01:52:25.634Z,101345.44
2024-01-20T01:55:29.183Z,101320.88
2024-01-20T01:58:32.210Z,101326.22
2024-01-20T02:01:35.557Z,101337.12
2024-01-20T02:04:39.154Z,101350.03
2024-01-20T02:07:44.916Z,101360.19
2024-01-20T02:10:48.648Z,101359.78
2024-01-20T02:13:51.971Z,101360.88
2024-01-20T02:16:55.002Z,101372.06
2024-01-20T02:19:58.176Z,101365.59
2024-01-20T02:23:01.790Z,101370.03
2024-01-20T02:26:05.206Z,101367.25
2024-01-20T02:29:08.379Z,101365.69
2024-01-20T02:32:11.642Z,101368.16
2024-01-20T02:35:14.575Z,101373.50
2024-01-20T02:38:17.892Z,101387.56
2024-01-20T02:41:20.838Z,101382.75
2024-01-20T02:44:24.151Z,101372.81
2024-01-20T02:47:27.203Z,101370.44
2024-01-20T02:50:30.298Z,101370.78
2024-01-20T02:53:33.616Z,101366.44
2024-01-20T02:56:37.146Z,101386.50
2024-01-20T02:59:40.021Z,101384.53
2024-01-20T03:02:43.211Z,101389.13
2024-01-20T03:05:46.612Z,101382.09
2024-01-20T03:08:50.380Z,101390.38
2024-01-20T03:11:53.200Z,101388.66
2024-01-20T03:14:56.489Z,101391.78
2024-01-20T03:17:59.640Z,101406.63
2024-01-20T03:21:03.025Z,101420.16
2024-01-20T03:24:06.350Z,101411.69
2024-01-20T03:27:10.900Z,101413.97
2024-01-20T03:30:14.159Z,101416.25
2024-01-20T03:33:17.698Z,101416.47
2024-01-20T03:36:20.769Z,101421.06
2024-01-20T03:39:24.285Z,101420.50
2024-01-20T03:42:29.261Z,101417.25
2024-01-20T03:45:32.805Z,101419.66
2024-01-20T03:48:35.920Z,101407.03
2024-01-20T03:51:39.497Z,101412.38
2024-01-20T03:54:42.585Z,101412.38
2024-01-20T03:57:45.711Z,101412.03
2024-01-20T04:01:05.139Z,101401.06
2024-01-20T04:04:09.366Z,101397.25
2024-01-20T04:07:12.689Z,101395.59
2024-01-20T04:10:16.104Z,101402.16
2024-01-20T04:13:19.118Z,101405.91
2024-01-20T04:16:22.366Z,101409.75
2024-01-20T04:19:25.465Z,101414.22
2024-01-20T04:22:29.025Z,101422.34
2024-01-20T04:25:32.009Z,101420.59
2024-01-20T04:28:35.220Z,101439.66
2024-01-20T04:31:38.401Z,101443.72
2024-01-20T04:34:41.945Z,101438.13
2024-01-20T04:37:45.245Z,101448.44
2024-01-20T04:40:48.683Z,101434.19
2024-01-20T04:43:51.724Z,101450.22
2024-01-20T04:46:55.065Z,101458.13
2024-01-20T04:49:57.832Z,101468.47
2024-01-20T04:53:00.976Z,101474.88
2024-01-20T04:56:07.643Z,101478.66
2024-01-20T04:59:10.869Z,101480.31
2024-01-20T05:02:14.576Z,101481.84
2024-01-20T05:05:22.851Z,101483.41
2024-01-20T05:08:25.713Z,101482.78
2024-01-20T05:11:28.707Z,101485.22
2024-01-20T05:14:31.726Z,101485.72
2024-01-20T05:17:35.370Z,101488.25
2024-01-20T05:20:39.337Z,101497.78
2024-01-20T05:23:42.686Z,101502.03
2024-01-20T05:26:45.723Z,101499.97
2024-01-20T05:29:49.139Z,101509.09
2024-01-20T05:32:52.291Z,101501.75
2024-01-20T05:35:57.659Z,101500.12
2024-01-20T05:39:00.707Z,101507.91
2024-01-20T05:42:04.650Z,101508.75
2024-01-20T05:45:10.809Z,101510.94
2024-01-20T05:48:14.396Z,101514.63
2024-01-20T05:51:17.190Z,101527.25
2024-01-20T05:54:20.636Z,101537.91
2024-01-20T05:57:25.374Z,101539.38
2024-01-20T06:00:28.890Z,101529.13
2024-01-20T06:03:35.873Z,101548.37
2024-01-20T06:06:39.279Z,101542.94
2024-01-20T06:09:42.691Z,101543.06
2024-01-20T06:12:46.065Z,101537.34
2024-01-20T06:15:49.901Z,101536.13
2024-01-20T06:18:52.874Z,101558.09
2024-01-20T06:21:56.346Z,101560.94
2024-01-20T06:24:59.377Z,101563.28
2024-01-20T06:28:04.745Z,101566.22
2024-01-20T06:31:07.789Z,101573.25
2024-01-20T06:34:11.214Z,101568.78
2024-01-20T06:37:14.762Z,101577.25
2024-01-20T06:40:18.245Z,101584.66
2024-01-20T06:43:21.320Z,101575.38
2024-01-20T06:46:24.754Z,101577.34
2024-01-20T06:49:27.681Z,101583.97
2024-01-20T06:52:32.706Z,101579.37
2024-01-20T06:55:36.072Z,101596.44
2024-01-20T06:58:39.483Z,101612.53
2024-01-20T07:01:46.039Z,101610.63
2024-01-20T07:04:50.218Z,101622.41
2024-01-20T07:07:55.097Z,101633.81
2024-01-20T07:10:58.471Z,101634.16
2024-01-20T07:14:01.253Z,101640.13
2024-01-20T07:17:06.732Z,101632.12
2024-01-20T07:20:12.074Z,101640.00
2024-01-20T07:23:15.122Z,101644.84
2024-01-20T07:26:18.376Z,101645.09
2024-01-20T07:29:21.694Z,101637.63
2024-01-20T07:32:24.752Z,101642.78
2024-01-20T07:35:27.957Z,101666.28
2024-01-20T07:38:31.170Z,101666.22
2024-01-20T07:41:34.566Z,101673.75
2024-01-20T07:44:37.711Z,101664.69
2024-01-20T07:47:41.306Z,101665.91
2024-01-20T07:50:44.314Z,101659.31
2024-01-20T07:53:48.758Z,101656.13
2024-01-20T07:56:51.656Z,101654.44
2024-01-20T07:59:54.956Z,101663.22
2024-01-20T08:02:58.856Z,101667.78
2024-01-20T08:06:08.788Z,101665.72
2024-01-20T08:09:12.664Z,101662.44
2024-01-20T08:12:16.240Z,101674.56
2024-01-20T08:15:19.197Z,101669.91
2024-01-20T08:18:23.039Z,101666.16
2024-01-20T08:21:26.356Z,101666.47
2024-01-20T08:24:29.847Z,101665.09
2024-01-20T08:27:33.077Z,101670.28
2024-01-20T08:30:36.480Z,101673.56
2024-01-20T08:33:40.789Z,101681.47
2024-01-20T08:36:44.466Z,101694.13
2024-01-20T08:39:47.297Z,101690.87
2024-01-20T08:42:51.849Z,101694.44
2024-01-20T08:45:54.614Z,101706.56
2024-01-20T08:48:57.917Z,101700.53
2024-01-20T08:52:00.942Z,101719.13
2024-01-20T08:55:04.601Z,101724.25
2024-01-20T08:58:07.525Z,101723.72
2024-01-20T09:01:11.180Z,101723.97
2024-01-20T09:04:17.353Z,101735.28
2024-01-20T09:07:22.035Z,101730.88
2024-01-20T09:10:25.409Z,101737.97
2024-01-20T09:13:29.051Z,101733.97
2024-01-20T09:16:32.010Z,101737.84
2024-01-20T09:19:35.281Z,101733.44
2024-01-20T09:22:38.390Z,101730.56
2024-01-20T09:25:41.588Z,101732.59
2024-01-20T09:28:44.614Z,101724.28
2024-01-20T09:31:47.997Z,101723.66
2024-01-20T09:34:50.964Z,101722.38
2024-01-20T09:37:54.051Z,101723.28
2024-01-20T09:40:59.545Z,101738.25
2024-01-20T09:44:04.033Z,101739.25
2024-01-20T09:47:11.324Z,101742.88
2024-01-20T09:50:14.654Z,101729.00
2024-01-20T09:53:20.034Z,101723.91
2024-01-20T09:56:23.580Z,101719.31
2024-01-20T09:59:29.021Z,101722.66
2024-01-20T10:02:34.566Z,101722.31
2024-01-20T10:05:39.277Z,101716.31
2024-01-20T10:08:42.579Z,101723.97
2024-01-20T10:11:46.332Z,101727.81
2024-01-20T10:14:49.586Z,101722.16
2024-01-20T10:17:53.861Z,101727.53
2024-01-20T10:21:05.074Z,101723.25
2024-01-20T10:24:09.330Z,101715.19
2024-01-20T10:27:21.676Z,101708.72
2024-01-20T10:30:26.449Z,101710.34
2024-01-20T10:33:29.538Z,101710.00
2024-01-20T10:36:33.946Z,101715.47
2024-01-20T10:39:43.787Z,101717.59
2024-01-20T10:42:51.590Z,101713.75
2024-01-20T10:46:21.240Z,101702.47
2024-01-20T10:49:24.643Z,101691.97
2024-01-20T10:52:27.452Z,101701.56
2024-01-20T10:55:33.426Z,101691.13
2024-01-20T10:58:53.502Z,101690.81
2024-01-20T11:01:57.638Z,101701.44
2024-01-20T11:05:01.444Z,101706.53
2024-01-20T11:08:07.830Z,101700.25
2024-01-20T11:11:11.514Z,101689.59
2024-01-20T11:14:16.975Z,101698.28
2024-01-20T11:17:20.698Z,101684.41
2024-01-20T11:20:24.173Z,101688.81
2024-01-20T11:23:27.999Z,101684.41
2024-01-20T11:26:38.881Z,101688.47
2024-01-20T11:29:41.686Z,101684.84
2024-01-20T11:32:45.432Z,101673.22
2024-01-20T11:35:48.445Z,101676.16
2024-01-20T11:38:53.309Z,101675.06
2024-01-20T11:42:05.522Z,101671.03
2024-01-20T11:45:09.187Z,101671.72
2024-01-20T11:48:15.099Z,101667.22
2024-01-20T11:51:21.419Z,101657.72
2024-01-20T11:54:24.433Z,101665.97
2024-01-20T11:57:31.473Z,101662.72
2024-01-20T12:00:34.724Z,101674.78
2024-01-20T12:03:38.013Z,101666.19
2024-01-20T12:06:41.178Z,101670.81
2024-01-20T12:09:48.311Z,101661.41
2024-01-20T12:12:51.226Z,101667.81
2024-01-20T12:15:55.394Z,101659.06
2024-01-20T12:18:58.337Z,101657.16
2024-01-20T12:22:01.961Z,101652.09
2024-01-20T12:25:05.334Z,101658.31
2024-01-20T12:28:08.549Z,101653.87
2024-01-20T12:31:13.890Z,101654.31
2024-01-20T12:34:18.881Z,101644.00
2024-01-20T12:37:22.119Z,101653.81
2024-01-20T12:40:26.102Z,101655.28
2024-01-20T12:43:29.249Z,101653.53
2024-01-20T12:46:32.490Z,101662.69
2024-01-20T12:49:35.557Z,101657.47
2024-01-20T12:52:38.956Z,101652.84
2024-01-20T12:55:42.162Z,101651.56
2024-01-20T12:58:45.448Z,101652.06
2024-01-20T13:01:50.193Z,101651.38
2024-01-20T13:04:53.638Z,101657.91
2024-01-20T13:07:56.887Z,101651.09
2024-01-20T13:11:00.105Z,101661.03
2024-01-20T13:14:04.732Z,101680.16
2024-01-20T13:17:07.821Z,101675.50
2024-01-20T13:20:11.316Z,101673.84
2024-01-20T13:23:14.948Z,101671.09
2024-01-20T13:26:18.273Z,101673.38
2024-01-20T13:29:21.756Z,101680.06
2024-01-20T13:32:24.975Z,101682.34
2024-01-20T13:35:28.361Z,101679.84
2024-01-20T13:38:31.396Z,101686.81
2024-01-20T13:41:35.354Z,101691.47
2024-01-20T13:44:38.736Z,101689.94
2024-01-20T13:47:41.971Z,101686.41
2024-01-20T13:50:44.991Z,101685.25
2024-01-20T13:53:48.738Z,101681.50
2024-01-20T13:56:51.754Z,101700.72
2024-01-20T13:59:54.905Z,101693.03
2024-01-20T14:02:58.118Z,101711.28
2024-01-20T14:06:01.444Z,101709.72
2024-01-20T14:09:06.440Z,101706.47
2024-01-20T14:12:10.598Z,101700.72
2024-01-20T14:15:13.766Z,101703.88
2024-01-20T14:18:17.500Z,101705.91
2024-01-20T14:21:20.668Z,101707.28
2024-01-20T14:24:24.054Z,101702.16
2024-01-20T14:27:27.073Z,101706.91
2024-01-20T14:30:30.314Z,101711.31
2024-01-20T14:33:33.604Z,101708.59
2024-01-20T14:36:37.042Z,101714.91
2024-01-20T14:39:40.709Z,101727.25
2024-01-20T14:42:44.305Z,101716.34
2024-01-20T14:45:47.447Z,101703.25
2024-01-20T14:48:50.713Z,101708.19
2024-01-20T14:51:53.605Z,101710.09
2024-01-20T14:54:57.951Z,101719.41
2024-01-20T14:58:00.851Z,101718.63
2024-01-20T15:01:04.881Z,101715.31
2024-01-20T15:04:08.678Z,101720.50
2024-01-20T15:07:12.405Z,101709.06
2024-01-20T15:10:15.738Z,101720.25
2024-01-20T15:13:19.088Z,101722.97
2024-01-20T15:16:22.285Z,101727.84
2024-01-20T15:19:26.052Z,101728.09
2024-01-20T15:22:29.074Z,101728.34
2024-01-20T15:25:32.556Z,101724.56
2024-01-20T15:28:35.406Z,101722.91
2024-01-20T15:31:38.754Z,101723.12
2024-01-20T15:34:41.822Z,101728.00
2024-01-20T15:37:45.159Z,101729.59
2024-01-20T15:40:48.498Z,101734.78
2024-01-20T15:43:54.304Z,101732.81
2024-01-20T15:46:57.426Z,101732.19
2024-01-20T15:50:01.025Z,101739.75
2024-01-20T15:53:04.193Z,101738.53
2024-01-20T15:56:09.672Z,101744.22
2024-01-20T15:59:13.609Z,101748.31
2024-01-20T16:02:17.041Z,101748.31
2024-01-20T16:05:20.563Z,101748.34
2024-01-20T16:08:23.641Z,101738.22
2024-01-20T16:11:27.754Z,101730.50
2024-01-20T16:14:31.165Z,101737.59
2024-01-20T16:17:37.508Z,101739.16
2024-01-20T16:20:40.584Z,101737.66
2024-01-20T16:23:43.748Z,101743.06
2024-01-20T16:26:46.698Z,101739.97
2024-01-20T16:29:50.130Z,101744.53
2024-01-20T16:32:52.912Z,101753.19
2024-01-20T16:35:56.480Z,101751.13
2024-01-20T16:38:59.314Z,101757.06
2024-01-20T16:42:02.722Z,101766.50
2024-01-20T16:45:06.285Z,101770.25
2024-01-20T16:48:09.849Z,101771.88
2024-01-20T16:51:18.278Z,101768.69
2024-01-20T16:54:27.929Z,101765.19
2024-01-20T16:57:31.162Z,101768.38
2024-01-20T17:00:34.500Z,101766.56
2024-01-20T17:03:37.478Z,101777.03
2024-01-20T17:06:40.697Z,101778.22
2024-01-20T17:09:44.452Z,101778.22
2024-01-20T17:12:47.684Z,101789.41
2024-01-20T17:15:50.448Z,101788.41
2024-01-20T17:18:54.613Z,101792.91
2024-01-20T17:21:57.613Z,101791.62
2024-01-20T17:25:01.636Z,101803.84
2024-01-20T17:28:04.743Z,101790.50
2024-01-20T17:31:08.146Z,101801.44
2024-01-20T17:34:11.331Z,101788.41
2024-01-20T17:37:15.222Z,101799.47
2024-01-20T17:40:18.630Z,101799.53
2024-01-20T17:43:22.137Z,101792.94
2024-01-20T17:46:25.119Z,101801.22
2024-01-20T17:49:28.878Z,101804.66
2024-01-20T17:52:32.147Z,101797.75
2024-01-20T17:55:35.803Z,101810.94
2024-01-20T17:58:38.850Z,101806.37
2024-01-20T18:01:43.197Z,101821.50
2024-01-20T18:04:46.963Z,101818.56
2024-01-20T18:07:51.381Z,101820.56
2024-01-20T18:10:55.582Z,101830.13
2024-01-20T18:13:59.552Z,101829.19
2024-01-20T18:17:03.538Z,101822.09
2024-01-20T18:20:08.260Z,101830.69
2024-01-20T18:23:12.160Z,101831.44
2024-01-20T18:26:15.405Z,101839.91
2024-01-20T18:29:18.819Z,101838.09
2024-01-20T18:32:22.572Z,101838.56
2024-01-20T18:35:25.967Z,101835.47
2024-01-20T18:38:29.056Z,101842.69
2024-01-20T18:41:33.374Z,101847.16
2024-01-20T18:44:36.575Z,101859.59
2024-01-20T18:47:45.949Z,101860.81
2024-01-20T18:50:48.848Z,101856.38
2024-01-20T18:53:52.063Z,101849.94
2024-01-20T18:56:55.306Z,101850.47
2024-01-20T18:59:59.663Z,101853.50
2024-01-20T19:03:02.995Z,101858.84
2024-01-20T19:06:06.654Z,101860.66
2024-01-20T19:09:09.806Z,101858.28
2024-01-20T19:12:14.760Z,101867.31
2024-01-20T19:15:17.866Z,101864.84
2024-01-20T19:18:21.663Z,101873.50
2024-01-20T19:21:25.068Z,101861.31
2024-01-20T19:24:28.547Z,101865.75
2024-01-20T19:27:32.286Z,101870.09
2024-01-20T19:30:35.702Z,101867.87
2024-01-20T19:33:40.893Z,101872.06
2024-01-20T19:36:46.109Z,101874.91
2024-01-20T19:39:49.047Z,101865.16
2024-01-20T19:42:52.325Z,101866.81
2024-01-20T19:45:55.112Z,101872.44
2024-01-20T19:48:58.192Z,101864.97
2024-01-20T19:52:02.008Z,101861.56
2024-01-20T19:55:06.680Z,101868.50
2024-01-20T19:58:09.773Z,101871.66
2024-01-20T20:01:13.247Z,101882.25
2024-01-20T20:04:17.576Z,101877.00
2024-01-20T20:07:21.051Z,101873.81
2024-01-20T20:10:28.367Z,101883.19
2024-01-20T20:13:31.323Z,101891.06
2024-01-20T20:16:34.705Z,101890.53
2024-01-20T20:19:38.009Z,101894.87
2024-01-20T20:22:41.707Z,101894.53
2024-01-20T20:25:44.396Z,101898.31
2024-01-20T20:28:47.755Z,101896.41
2024-01-20T20:31:50.704Z,101901.59
2024-01-20T20:34:58.853Z,101899.66
2024-01-20T20:38:01.982Z,101902.72
2024-01-20T20:41:05.559Z,101900.59
2024-01-20T20:44:10.057Z,101903.97
2024-01-20T20:47:14.539Z,101912.38
2024-01-20T20:50:19.085Z,101902.69
2024-01-20T20:53:22.285Z,101909.16
2024-01-20T20:56:25.075Z,101905.88
2024-01-20T20:59:28.351Z,101908.94
2024-01-20T21:02:31.589Z,101912.94
2024-01-20T21:05:35.102Z,101907.47
2024-01-20T21:08:38.435Z,101901.03
2024-01-20T21:11:42.127Z,101905.66
2024-01-20T21:14:45.280Z,101906.16
2024-01-20T21:17:50.096Z,101903.69
2024-01-20T21:20:53.468Z,101905.22
2024-01-20T21:23:56.810Z,101899.94
2024-01-20T21:27:00.742Z,101895.34
2024-01-20T21:30:05.762Z,101897.22
2024-01-20T21:33:10.407Z,101897.09
2024-01-20T21:36:14.449Z,101894.72
2024-01-20T21:39:21.427Z,101899.09
2024-01-20T21:42:24.765Z,101899.09
2024-01-20T21:45:29.813Z,101909.94
2024-01-20T21:48:33.270Z,101912.19
2024-01-20T21:51:38.667Z,101907.09
2024-01-20T21:54:45.144Z,101911.44
2024-01-20T21:57:51.356Z,101906.88
2024-01-20T22:00:55.557Z,101924.16
2024-01-20T22:03:59.201Z,101923.41
2024-01-20T22:07:02.037Z,101919.50
2024-01-20T22:10:06.869Z,101918.19
2024-01-20T22:13:09.933Z,101909.25
2024-01-20T22:16:13.830Z,101912.66
2024-01-20T22:19:16.832Z,101921.75
2024-01-20T22:22:21.208Z,101926.91
2024-01-20T22:25:24.629Z,101919.84
2024-01-20T22:28:28.346Z,101930.25
2024-01-20T22:31:32.415Z,101927.66
2024-01-20T22:34:36.357Z,101924.72
2024-01-20T22:37:39.370Z,101927.38
2024-01-20T22:40:42.851Z,101932.31
2024-01-20T22:43:45.980Z,101926.91
2024-01-20T22:46:50.173Z,101937.25
2024-01-20T22:49:53.096Z,101935.47
2024-01-20T22:52:56.360Z,101942.16
2024-01-20T22:55:59.239Z,101939.41
2024-01-20T22:59:02.320Z,101940.41
2024-01-20T23:02:05.429Z,101943.84
2024-01-20T23:05:09.513Z,101939.13
2024-01-20T23:08:15.090Z,101938.06
2024-01-20T23:11:19.167Z,101943.06
2024-01-20T23:14:22.496Z,101942.56
2024-01-20T23:17:26.096Z,101949.88
2024-01-20T23:20:28.932Z,101944.47
2024-01-20T23:23:32.208Z,101954.81
2024-01-20T23:26:36.410Z,101953.38
2024-01-20T23:29:39.807Z,101962.22
2024-01-20T23:32:43.916Z,101947.41
2024-01-20T23:35:47.216Z,101938.50
2024-01-20T23:38:50.016Z,101943.62
2024-01-20T23:41:53.204Z,101931.34
2024-01-20T23:44:56.485Z,101943.25
2024-01-20T23:47:59.704Z,101936.16
2024-01-20T23:51:02.762Z,101935.84
2024-01-20T23:54:06.003Z,101924.38
2024-01-20T23:57:08.857Z,101929.81
